createdAt,value
2023-04-28T00:00:30.693Z,68.40
2023-04-28T00:01:30.637Z,67.79
2023-04-28T00:02:30.825Z,69.73
2023-04-28T00:03:30.791Z,69.53
2023-04-28T00:04:30.806Z,69.32
2023-04-28T00:05:30.633Z,69.02
2023-04-28T00:06:30.621Z,69.02
2023-04-28T00:07:38.164Z,69.93
2023-04-28T00:08:30.570Z,70.75
2023-04-28T00:09:30.539Z,71.06
2023-04-28T00:10:30.540Z,70.75
2023-04-28T00:11:30.508Z,71.56
2023-04-28T00:12:30.515Z,72.69
2023-04-28T00:13:30.510Z,72.11
2023-04-28T00:14:30.481Z,71.91
2023-04-28T00:15:30.484Z,72.21
2023-04-28T00:16:30.472Z,73.03
2023-04-28T00:17:30.521Z,73.33
2023-04-28T00:18:30.562Z,73.54
2023-04-28T00:19:30.411Z,72.92
2023-04-28T00:20:30.408Z,73.13
2023-04-28T00:21:30.423Z,72.82
2023-04-28T00:22:30.388Z,72.21
2023-04-28T00:23:30.370Z,72.41
2023-04-28T00:24:30.336Z,72.62
2023-04-28T00:25:30.366Z,71.80
2023-04-28T00:26:30.347Z,71.19
2023-04-28T00:27:30.317Z,71.70
2023-04-28T00:28:34.781Z,72.52
2023-04-28T00:29:30.302Z,72.62
2023-04-28T00:30:30.291Z,73.54
2023-04-28T00:31:30.292Z,73.33
2023-04-28T00:32:30.248Z,72.82
2023-04-28T00:33:30.248Z,72.82
2023-04-28T00:34:30.218Z,73.13
2023-04-28T00:35:30.234Z,73.64
2023-04-28T00:36:30.184Z,72.41
2023-04-28T00:37:30.167Z,72.52
2023-04-28T00:38:30.144Z,72.31
2023-04-28T00:39:30.177Z,72.41
2023-04-28T00:40:30.124Z,72.41
2023-04-28T00:41:30.157Z,71.80
2023-04-28T00:42:30.123Z,72.62
2023-04-28T00:43:30.147Z,72.62
2023-04-28T00:44:30.079Z,73.64
2023-04-28T00:45:30.121Z,73.43
2023-04-28T00:46:30.069Z,72.72
2023-04-28T00:47:30.069Z,72.62
2023-04-28T00:48:30.058Z,73.13
2023-04-28T00:49:30.015Z,73.64
2023-04-28T00:50:29.976Z,73.23
2023-04-28T00:51:30.046Z,72.21
2023-04-28T00:52:29.964Z,71.50
2023-04-28T00:53:29.964Z,72.41
2023-04-28T00:54:29.947Z,73.13
2023-04-28T00:55:29.952Z,73.43
2023-04-28T00:56:29.905Z,73.33
2023-04-28T00:57:29.952Z,72.72
2023-04-28T00:58:29.917Z,71.09
2023-04-28T00:59:29.889Z,71.60
2023-04-28T01:00:29.889Z,72.31
2023-04-28T01:01:29.873Z,72.72
2023-04-28T01:02:29.984Z,72.52
2023-04-28T01:03:29.985Z,72.72
2023-04-28T01:04:30.029Z,73.74
2023-04-28T01:05:29.838Z,72.72
2023-04-28T01:06:29.788Z,73.94
2023-04-28T01:07:29.858Z,73.64
2023-04-28T01:08:29.812Z,73.74
2023-04-28T01:09:29.782Z,75.57
2023-04-28T01:10:29.740Z,75.88
2023-04-28T01:11:29.757Z,76.50
2023-04-28T01:12:29.726Z,77.00
2023-04-28T01:13:29.721Z,77.96
2023-04-28T01:14:29.715Z,77.14
2023-04-28T01:15:29.739Z,77.86
2023-04-28T01:16:29.700Z,77.25
2023-04-28T01:17:29.722Z,77.25
2023-04-28T01:18:29.644Z,77.75
2023-04-28T01:19:29.657Z,78.98
2023-04-28T01:20:29.645Z,77.38
2023-04-28T01:21:29.630Z,78.09
2023-04-28T01:22:29.601Z,78.41
2023-04-28T01:23:29.575Z,79.02
2023-04-28T01:24:29.569Z,79.52
2023-04-28T01:25:29.552Z,79.63
2023-04-28T01:26:31.941Z,79.73
2023-04-28T01:27:29.530Z,80.44
2023-04-28T01:28:29.513Z,80.65
2023-04-28T01:29:29.505Z,80.44
2023-04-28T01:30:29.536Z,80.44
2023-04-28T01:31:29.583Z,80.04
2023-04-28T01:32:29.653Z,80.14
2023-04-28T01:33:29.439Z,80.85
2023-04-28T01:34:29.469Z,80.14
2023-04-28T01:35:29.443Z,80.24
2023-04-28T01:36:29.467Z,80.75
2023-04-28T01:37:29.412Z,80.75
2023-04-28T01:38:29.380Z,80.44
2023-04-28T01:39:29.378Z,81.05
2023-04-28T01:40:29.359Z,80.65
2023-04-28T01:41:29.367Z,80.65
2023-04-28T01:42:29.336Z,80.96
2023-04-28T01:43:29.330Z,80.96
2023-04-28T01:44:29.297Z,80.55
2023-04-28T01:45:29.332Z,81.37
2023-04-28T01:46:29.327Z,81.37
2023-04-28T01:47:29.303Z,80.24
2023-04-28T01:48:29.248Z,80.34
2023-04-28T01:49:29.227Z,80.65
2023-04-28T01:50:29.312Z,80.34
2023-04-28T01:51:29.217Z,80.14
2023-04-28T01:52:29.216Z,80.55
2023-04-28T01:53:29.170Z,80.24
2023-04-28T01:54:29.176Z,79.73
2023-04-28T01:55:29.161Z,80.34
2023-04-28T01:56:29.168Z,80.75
2023-04-28T01:57:29.137Z,80.65
2023-04-28T01:58:29.151Z,80.14
2023-04-28T01:59:29.108Z,80.85
2023-04-28T02:00:29.109Z,81.26
2023-04-28T02:01:29.108Z,81.26
2023-04-28T02:02:29.140Z,81.37
2023-04-28T02:03:29.279Z,81.40
2023-04-28T02:04:29.121Z,80.18
2023-04-28T02:05:29.038Z,80.07
2023-04-28T02:06:29.054Z,80.99
2023-04-28T02:07:28.992Z,81.81
2023-04-28T02:08:29.049Z,82.12
2023-04-28T02:09:28.971Z,82.73
2023-04-28T02:10:28.975Z,83.14
2023-04-28T02:11:28.941Z,83.24
2023-04-28T02:12:28.968Z,83.24
2023-04-28T02:13:28.912Z,83.44
2023-04-28T02:14:28.921Z,83.54
2023-04-28T02:15:28.909Z,83.44
2023-04-28T02:16:29.031Z,83.24
2023-04-28T02:17:28.938Z,83.54
2023-04-28T02:18:28.863Z,83.14
2023-04-28T02:19:28.828Z,83.44
2023-04-28T02:20:30.719Z,83.65
2023-04-28T02:21:28.863Z,83.54
2023-04-28T02:22:28.808Z,83.75
2023-04-28T02:23:28.809Z,84.47
2023-04-28T02:24:28.781Z,84.88
2023-04-28T02:25:28.760Z,85.49
2023-04-28T02:26:28.765Z,85.59
2023-04-28T02:27:28.724Z,85.73
2023-04-28T02:28:28.765Z,85.02
2023-04-28T02:29:28.699Z,84.91
2023-04-28T02:30:28.696Z,85.12
2023-04-28T02:31:28.789Z,85.63
2023-04-28T02:32:28.724Z,85.73
2023-04-28T02:33:28.655Z,86.14
2023-04-28T02:34:28.679Z,86.65
2023-04-28T02:35:28.642Z,86.76
2023-04-28T02:36:28.625Z,86.85
2023-04-28T02:37:28.629Z,87.26
2023-04-28T02:38:28.628Z,87.57
2023-04-28T02:39:28.605Z,87.88
2023-04-28T02:40:28.577Z,87.88
2023-04-28T02:41:28.595Z,87.37
2023-04-28T02:42:28.620Z,87.16
2023-04-28T02:43:28.518Z,86.69
2023-04-28T02:44:28.516Z,86.79
2023-04-28T02:45:28.506Z,86.59
2023-04-28T02:46:28.528Z,86.29
2023-04-28T02:47:28.532Z,86.59
2023-04-28T02:48:28.468Z,86.69
2023-04-28T02:49:28.487Z,85.77
2023-04-28T02:50:28.443Z,86.29
2023-04-28T02:51:28.426Z,86.08
2023-04-28T02:52:28.424Z,86.08
2023-04-28T02:53:28.416Z,86.08
2023-04-28T02:54:28.415Z,86.49
2023-04-28T02:55:28.363Z,86.59
2023-04-28T02:56:28.385Z,86.55
2023-04-28T02:57:28.353Z,86.96
2023-04-28T02:58:28.328Z,86.65
2023-04-28T02:59:28.323Z,86.04
2023-04-28T03:00:28.308Z,85.94
2023-04-28T03:01:28.342Z,86.24
2023-04-28T03:02:28.409Z,86.44
2023-04-28T03:03:28.434Z,86.55
2023-04-28T03:04:28.520Z,86.44
2023-04-28T03:05:28.265Z,86.85
2023-04-28T03:06:28.368Z,87.16
2023-04-28T03:07:28.294Z,87.06
2023-04-28T03:08:28.216Z,86.85
2023-04-28T03:09:28.229Z,86.85
2023-04-28T03:10:28.212Z,87.26
2023-04-28T03:11:28.181Z,87.26
2023-04-28T03:12:28.181Z,87.26
2023-04-28T03:13:28.175Z,87.37
2023-04-28T03:14:28.136Z,87.57
2023-04-28T03:15:28.107Z,87.88
2023-04-28T03:16:28.201Z,88.18
2023-04-28T03:17:28.158Z,88.29
2023-04-28T03:18:28.163Z,88.49
2023-04-28T03:19:28.093Z,88.70
2023-04-28T03:20:28.089Z,89.00
2023-04-28T03:21:28.032Z,89.00
2023-04-28T03:22:28.043Z,89.00
2023-04-28T03:23:28.022Z,89.20
2023-04-28T03:24:28.026Z,89.20
2023-04-28T03:25:28.020Z,89.11
2023-04-28T03:26:28.021Z,89.11
2023-04-28T03:27:27.994Z,89.11
2023-04-28T03:28:28.045Z,89.51
2023-04-28T03:29:27.953Z,89.51
2023-04-28T03:30:27.962Z,89.51
2023-04-28T03:31:27.926Z,89.72
2023-04-28T03:32:27.939Z,89.82
2023-04-28T03:33:27.939Z,89.82
2023-04-28T03:34:27.903Z,89.82
2023-04-28T03:35:27.851Z,90.12
2023-04-28T03:36:27.858Z,90.33
2023-04-28T03:37:27.862Z,90.64
2023-04-28T03:38:27.840Z,90.94
2023-04-28T03:39:27.840Z,91.15
2023-04-28T03:40:27.834Z,91.25
2023-04-28T03:41:27.778Z,91.39
2023-04-28T03:42:27.782Z,91.39
2023-04-28T03:43:27.823Z,90.99
2023-04-28T03:44:27.777Z,90.37
2023-04-28T03:45:27.750Z,90.37
2023-04-28T03:46:27.785Z,90.58
2023-04-28T03:47:27.707Z,90.47
2023-04-28T03:48:27.896Z,90.78
2023-04-28T03:49:27.697Z,90.88
2023-04-28T03:50:27.698Z,90.99
2023-04-28T03:51:27.678Z,90.92
2023-04-28T03:52:27.693Z,90.92
2023-04-28T03:53:27.678Z,91.23
2023-04-28T03:54:27.624Z,91.23
2023-04-28T03:55:27.634Z,91.33
2023-04-28T03:56:27.614Z,91.03
2023-04-28T03:57:27.571Z,91.03
2023-04-28T03:58:27.596Z,91.13
2023-04-28T03:59:27.545Z,91.23
2023-04-28T04:00:27.589Z,91.54
2023-04-28T04:01:28.042Z,91.33
2023-04-28T04:02:27.660Z,90.82
2023-04-28T04:03:27.757Z,90.52
2023-04-28T04:04:27.863Z,90.62
2023-04-28T04:05:27.520Z,91.03
2023-04-28T04:06:27.465Z,90.92
2023-04-28T04:07:27.504Z,91.13
2023-04-28T04:08:27.514Z,91.33
2023-04-28T04:09:27.453Z,91.54
2023-04-28T04:10:27.420Z,91.85
2023-04-28T04:11:27.432Z,91.74
2023-04-28T04:12:27.427Z,91.74
2023-04-28T04:13:27.426Z,91.48
2023-04-28T04:14:27.373Z,91.48
2023-04-28T04:15:27.343Z,91.54
2023-04-28T04:16:27.383Z,91.54
2023-04-28T04:17:27.414Z,91.64
2023-04-28T04:18:27.403Z,91.33
2023-04-28T04:19:27.292Z,91.17
2023-04-28T04:20:27.313Z,91.33
2023-04-28T04:21:27.265Z,90.92
2023-04-28T04:22:27.361Z,90.86
2023-04-28T04:23:27.263Z,90.62
2023-04-28T04:24:27.257Z,90.62
2023-04-28T04:25:27.229Z,90.52
2023-04-28T04:26:27.236Z,90.31
2023-04-28T04:27:27.249Z,90.52
2023-04-28T04:28:27.241Z,90.72
2023-04-28T04:29:27.201Z,90.82
2023-04-28T04:30:27.154Z,91.03
2023-04-28T04:31:27.211Z,90.92
2023-04-28T04:32:27.218Z,90.92
2023-04-28T04:33:27.133Z,91.23
2023-04-28T04:34:27.124Z,91.33
2023-04-28T04:35:27.098Z,91.13
2023-04-28T04:36:27.073Z,91.13
2023-04-28T04:37:27.109Z,91.03
2023-04-28T04:38:27.037Z,90.82
2023-04-28T04:39:27.065Z,90.82
2023-04-28T04:40:27.045Z,90.72
2023-04-28T04:41:27.050Z,90.11
2023-04-28T04:42:27.019Z,90.00
2023-04-28T04:43:26.995Z,89.90
2023-04-28T04:44:26.969Z,89.80
2023-04-28T04:45:26.963Z,89.80
2023-04-28T04:46:27.023Z,90.00
2023-04-28T04:47:27.003Z,89.80
2023-04-28T04:48:26.948Z,89.90
2023-04-28T04:49:27.042Z,89.90
2023-04-28T04:50:26.910Z,90.21
2023-04-28T04:51:26.916Z,90.31
2023-04-28T04:52:26.938Z,90.21
2023-04-28T04:53:26.981Z,90.00
2023-04-28T04:54:26.847Z,89.90
2023-04-28T04:55:26.873Z,89.70
2023-04-28T04:56:26.806Z,89.39
2023-04-28T04:57:26.809Z,89.39
2023-04-28T04:58:26.860Z,89.65
2023-04-28T04:59:26.809Z,89.86
2023-04-28T05:00:26.759Z,90.17
2023-04-28T05:01:26.798Z,90.37
2023-04-28T05:02:26.765Z,90.00
2023-04-28T05:03:26.982Z,90.00
2023-04-28T05:04:26.785Z,90.11
2023-04-28T05:05:26.798Z,89.70
2023-04-28T05:06:26.697Z,89.59
2023-04-28T05:07:26.716Z,89.70
2023-04-28T05:08:26.681Z,90.21
2023-04-28T05:09:26.664Z,90.47
2023-04-28T05:10:26.636Z,90.78
2023-04-28T05:11:26.667Z,90.82
2023-04-28T05:12:26.658Z,90.92
2023-04-28T05:13:26.627Z,90.92
2023-04-28T05:14:26.609Z,91.09
2023-04-28T05:15:26.577Z,91.29
2023-04-28T05:16:26.613Z,91.50
2023-04-28T05:17:26.592Z,91.60
2023-04-28T05:18:26.581Z,91.70
2023-04-28T05:19:26.531Z,91.85
2023-04-28T05:20:26.541Z,91.33
2023-04-28T05:21:26.509Z,91.33
2023-04-28T05:22:26.529Z,91.33
2023-04-28T05:23:26.519Z,91.54
2023-04-28T05:24:26.451Z,91.44
2023-04-28T05:25:26.464Z,91.44
2023-04-28T05:26:26.464Z,91.44
2023-04-28T05:27:26.453Z,91.54
2023-04-28T05:28:26.439Z,91.54
2023-04-28T05:29:26.409Z,91.85
2023-04-28T05:30:26.405Z,91.85
2023-04-28T05:31:26.457Z,91.74
2023-04-28T05:32:26.389Z,92.05
2023-04-28T05:33:26.379Z,92.15
2023-04-28T05:34:26.351Z,91.95
2023-04-28T05:35:26.339Z,91.74
2023-04-28T05:36:26.328Z,91.85
2023-04-28T05:37:26.301Z,92.15
2023-04-28T05:38:26.287Z,92.36
2023-04-28T05:39:26.323Z,92.46
2023-04-28T05:40:26.274Z,92.25
2023-04-28T05:41:26.266Z,92.46
2023-04-28T05:42:26.319Z,92.56
2023-04-28T05:43:26.249Z,92.56
2023-04-28T05:44:26.251Z,92.36
2023-04-28T05:45:26.222Z,92.25
2023-04-28T05:46:30.698Z,92.21
2023-04-28T05:47:26.227Z,92.11
2023-04-28T05:48:26.149Z,92.21
2023-04-28T05:49:26.160Z,92.21
2023-04-28T05:50:26.124Z,92.32
2023-04-28T05:51:26.204Z,92.32
2023-04-28T05:52:26.096Z,92.42
2023-04-28T05:53:26.139Z,91.80
2023-04-28T05:54:26.169Z,91.91
2023-04-28T05:55:26.078Z,91.91
2023-04-28T05:56:26.072Z,92.01
2023-04-28T05:57:26.146Z,91.70
2023-04-28T05:58:26.056Z,91.39
2023-04-28T05:59:26.036Z,91.50
2023-04-28T06:00:26.112Z,91.60
2023-04-28T06:01:26.010Z,91.70
2023-04-28T06:02:27.964Z,91.80
2023-04-28T06:03:26.281Z,92.01
2023-04-28T06:04:26.746Z,91.70
2023-04-28T06:05:26.479Z,91.80
2023-04-28T06:06:26.064Z,91.66
2023-04-28T06:07:25.968Z,91.76
2023-04-28T06:08:35.225Z,91.86
2023-04-28T06:09:27.762Z,91.96
2023-04-28T06:10:25.892Z,91.96
2023-04-28T06:11:28.611Z,91.96
2023-04-28T06:12:25.840Z,91.76
2023-04-28T06:13:25.907Z,91.46
2023-04-28T06:14:25.886Z,91.46
2023-04-28T06:15:25.907Z,91.25
2023-04-28T06:16:25.949Z,91.35
2023-04-28T06:17:25.832Z,91.15
2023-04-28T06:18:25.834Z,91.25
2023-04-28T06:19:25.897Z,91.25
2023-04-28T06:20:25.764Z,91.35
2023-04-28T06:21:25.770Z,91.61
2023-04-28T06:22:25.763Z,91.61
2023-04-28T06:23:25.716Z,91.52
2023-04-28T06:24:25.756Z,91.61
2023-04-28T06:25:25.703Z,91.82
2023-04-28T06:26:25.699Z,91.92
2023-04-28T06:27:25.681Z,91.82
2023-04-28T06:28:25.665Z,91.82
2023-04-28T06:29:25.707Z,91.92
2023-04-28T06:30:25.680Z,92.02
2023-04-28T06:31:25.761Z,92.02
2023-04-28T06:32:25.645Z,91.92
2023-04-28T06:33:25.582Z,92.02
2023-04-28T06:34:25.572Z,92.02
2023-04-28T06:35:25.583Z,91.92
2023-04-28T06:36:25.536Z,91.57
2023-04-28T06:37:25.536Z,91.37
2023-04-28T06:38:25.524Z,91.47
2023-04-28T06:39:25.546Z,91.27
2023-04-28T06:40:25.543Z,91.47
2023-04-28T06:41:25.526Z,91.37
2023-04-28T06:42:26.922Z,91.57
2023-04-28T06:43:25.490Z,91.57
2023-04-28T06:44:25.462Z,91.63
2023-04-28T06:45:25.427Z,91.53
2023-04-28T06:46:25.437Z,91.43
2023-04-28T06:47:25.462Z,91.02
2023-04-28T06:48:25.379Z,90.51
2023-04-28T06:49:25.395Z,90.31
2023-04-28T06:50:25.457Z,90.61
2023-04-28T06:51:25.383Z,90.51
2023-04-28T06:52:33.124Z,90.71
2023-04-28T06:53:26.341Z,90.81
2023-04-28T06:54:25.329Z,90.41
2023-04-28T06:55:25.285Z,90.31
2023-04-28T06:56:25.302Z,90.31
2023-04-28T06:57:25.295Z,90.31
2023-04-28T06:58:25.276Z,90.41
2023-04-28T06:59:25.469Z,90.20
2023-04-28T07:00:25.357Z,90.51
2023-04-28T07:01:25.293Z,90.77
2023-04-28T07:02:25.371Z,90.77
2023-04-28T07:03:25.473Z,90.41
2023-04-28T07:04:25.392Z,90.51
2023-04-28T07:05:25.206Z,90.00
2023-04-28T07:06:25.178Z,90.10
2023-04-28T07:07:25.144Z,90.51
2023-04-28T07:08:25.169Z,90.71
2023-04-28T07:09:25.178Z,90.41
2023-04-28T07:10:25.136Z,90.57
2023-04-28T07:11:25.122Z,90.88
2023-04-28T07:12:25.067Z,90.98
2023-04-28T07:13:25.085Z,91.08
2023-04-28T07:14:25.094Z,90.98
2023-04-28T07:15:25.138Z,90.88
2023-04-28T07:16:25.090Z,90.67
2023-04-28T07:17:25.171Z,90.57
2023-04-28T07:18:25.027Z,90.67
2023-04-28T07:19:25.003Z,90.67
2023-04-28T07:20:25.029Z,90.47
2023-04-28T07:21:24.983Z,90.47
2023-04-28T07:22:24.948Z,90.67
2023-04-28T07:23:24.985Z,90.67
2023-04-28T07:24:24.938Z,90.77
2023-04-28T07:25:24.972Z,90.88
2023-04-28T07:26:24.940Z,90.77
2023-04-28T07:27:24.896Z,90.98
2023-04-28T07:28:24.905Z,90.77
2023-04-28T07:29:24.867Z,90.77
2023-04-28T07:30:27.770Z,91.18
2023-04-28T07:31:24.948Z,90.88
2023-04-28T07:32:24.922Z,90.77
2023-04-28T07:33:24.820Z,90.67
2023-04-28T07:34:24.852Z,90.16
2023-04-28T07:35:24.938Z,90.36
2023-04-28T07:36:24.833Z,90.67
2023-04-28T07:37:24.757Z,90.88
2023-04-28T07:38:24.749Z,90.88
2023-04-28T07:39:24.750Z,90.36
2023-04-28T07:40:24.732Z,90.57
2023-04-28T07:41:24.707Z,90.77
2023-04-28T07:42:24.701Z,90.88
2023-04-28T07:43:24.717Z,90.16
2023-04-28T07:44:24.681Z,90.26
2023-04-28T07:45:24.734Z,90.36
2023-04-28T07:46:24.708Z,90.22
2023-04-28T07:47:24.648Z,90.01
2023-04-28T07:48:24.676Z,90.01
2023-04-28T07:49:24.671Z,90.32
2023-04-28T07:50:24.634Z,90.18
2023-04-28T07:51:24.582Z,89.97
2023-04-28T07:52:24.628Z,89.87
2023-04-28T07:53:24.587Z,89.73
2023-04-28T07:54:24.599Z,89.63
2023-04-28T07:55:24.548Z,89.73
2023-04-28T07:56:24.525Z,89.63
2023-04-28T07:57:24.495Z,89.22
2023-04-28T07:58:24.515Z,88.92
2023-04-28T07:59:24.527Z,88.51
2023-04-28T08:00:24.477Z,88.36
2023-04-28T08:01:24.545Z,88.10
2023-04-28T08:02:24.539Z,88.20
2023-04-28T08:03:24.646Z,88.61
2023-04-28T08:04:24.871Z,88.51
2023-04-28T08:05:24.508Z,88.20
2023-04-28T08:06:24.400Z,88.40
2023-04-28T08:07:24.377Z,88.61
2023-04-28T08:08:24.396Z,88.61
2023-04-28T08:09:24.394Z,89.01
2023-04-28T08:10:24.346Z,88.92
2023-04-28T08:11:24.356Z,88.40
2023-04-28T08:12:24.293Z,88.61
2023-04-28T08:13:24.315Z,88.51
2023-04-28T08:14:24.281Z,88.71
2023-04-28T08:15:24.270Z,88.81
2023-04-28T08:16:24.350Z,89.18
2023-04-28T08:17:24.312Z,89.28
2023-04-28T08:18:24.273Z,88.87
2023-04-28T08:19:24.234Z,88.67
2023-04-28T08:20:24.910Z,88.57
2023-04-28T08:21:24.193Z,88.57
2023-04-28T08:22:24.201Z,88.77
2023-04-28T08:23:24.249Z,88.77
2023-04-28T08:24:24.152Z,88.77
2023-04-28T08:25:24.148Z,88.57
2023-04-28T08:26:24.172Z,89.07
2023-04-28T08:27:24.136Z,89.54
2023-04-28T08:28:24.120Z,89.34
2023-04-28T08:29:24.229Z,88.93
2023-04-28T08:30:24.078Z,88.73
2023-04-28T08:31:24.239Z,88.93
2023-04-28T08:32:24.069Z,88.73
2023-04-28T08:33:24.036Z,88.02
2023-04-28T08:34:24.068Z,87.92
2023-04-28T08:35:24.034Z,88.12
2023-04-28T08:36:23.973Z,88.59
2023-04-28T08:37:24.180Z,89.00
2023-04-28T08:38:23.993Z,88.39
2023-04-28T08:39:23.998Z,88.69
2023-04-28T08:40:23.978Z,88.48
2023-04-28T08:41:23.924Z,88.08
2023-04-28T08:42:23.925Z,87.84
2023-04-28T08:43:23.925Z,87.84
2023-04-28T08:44:23.929Z,87.84
2023-04-28T08:45:23.886Z,87.73
2023-04-28T08:46:23.985Z,87.63
2023-04-28T08:47:23.918Z,87.93
2023-04-28T08:48:24.087Z,87.84
2023-04-28T08:49:23.849Z,88.13
2023-04-28T08:50:23.850Z,88.24
2023-04-28T08:51:23.811Z,88.13
2023-04-28T08:52:23.805Z,88.34
2023-04-28T08:53:23.822Z,87.73
2023-04-28T08:54:29.064Z,87.73
2023-04-28T08:55:24.755Z,87.93
2023-04-28T08:56:23.727Z,87.73
2023-04-28T08:57:23.736Z,87.93
2023-04-28T08:58:23.714Z,88.24
2023-04-28T08:59:23.764Z,88.44
2023-04-28T09:00:23.715Z,88.54
2023-04-28T09:01:23.774Z,88.54
2023-04-28T09:02:23.892Z,88.44
2023-04-28T09:03:23.943Z,88.54
2023-04-28T09:04:24.054Z,88.75
2023-04-28T09:05:23.906Z,89.00
2023-04-28T09:06:23.626Z,88.79
2023-04-28T09:07:23.620Z,88.89
2023-04-28T09:08:23.636Z,88.85
2023-04-28T09:09:23.575Z,88.79
2023-04-28T09:10:23.580Z,88.69
2023-04-28T09:11:23.550Z,88.85
2023-04-28T09:12:23.515Z,88.85
2023-04-28T09:13:23.502Z,88.85
2023-04-28T09:14:23.532Z,89.26
2023-04-28T09:15:23.496Z,89.76
2023-04-28T09:16:23.653Z,90.27
2023-04-28T09:17:23.552Z,90.48
2023-04-28T09:18:23.475Z,90.58
2023-04-28T09:19:23.444Z,91.09
2023-04-28T09:20:23.473Z,91.60
2023-04-28T09:21:23.475Z,91.80
2023-04-28T09:22:26.646Z,92.21
2023-04-28T09:23:23.365Z,92.41
2023-04-28T09:24:23.406Z,92.82
2023-04-28T09:25:23.352Z,93.12
2023-04-28T09:26:23.369Z,93.63
2023-04-28T09:27:23.363Z,93.83
2023-04-28T09:28:23.391Z,93.99
2023-04-28T09:29:23.317Z,94.20
2023-04-28T09:30:23.348Z,94.40
2023-04-28T09:31:23.346Z,94.50
2023-04-28T09:32:23.689Z,94.60
2023-04-28T09:33:23.316Z,94.70
2023-04-28T09:34:23.256Z,95.21
2023-04-28T09:35:23.253Z,95.31
2023-04-28T09:36:23.241Z,95.31
2023-04-28T09:37:23.223Z,95.31
2023-04-28T09:38:23.304Z,95.41
2023-04-28T09:39:23.267Z,95.72
2023-04-28T09:40:23.248Z,95.92
2023-04-28T09:41:23.220Z,96.02
2023-04-28T09:42:23.191Z,96.07
2023-04-28T09:43:23.176Z,96.17
2023-04-28T09:44:23.114Z,96.47
2023-04-28T09:45:23.150Z,96.58
2023-04-28T09:46:23.128Z,96.78
2023-04-28T09:47:23.056Z,96.88
2023-04-28T09:48:23.119Z,97.08
2023-04-28T09:49:23.093Z,97.29
2023-04-28T09:50:23.059Z,97.49
2023-04-28T09:51:23.012Z,97.69
2023-04-28T09:52:23.011Z,97.80
2023-04-28T09:53:22.997Z,97.84
2023-04-28T09:54:23.033Z,97.94
2023-04-28T09:55:22.981Z,97.94
2023-04-28T09:56:23.002Z,98.14
2023-04-28T09:57:23.248Z,98.25
2023-04-28T09:58:22.994Z,98.35
2023-04-28T09:59:22.971Z,98.45
2023-04-28T10:00:22.962Z,98.45
2023-04-28T10:01:22.880Z,98.55
2023-04-28T10:02:42.763Z,98.66
2023-04-28T10:03:25.116Z,98.75
2023-04-28T10:04:23.127Z,98.86
2023-04-28T10:05:23.335Z,98.96
2023-04-28T10:06:23.396Z,98.96
2023-04-28T10:07:22.900Z,99.16
2023-04-28T10:08:22.806Z,99.27
2023-04-28T10:09:24.803Z,99.22
2023-04-28T10:10:22.851Z,99.32
2023-04-28T10:11:22.824Z,99.42
2023-04-28T10:12:22.798Z,99.52
2023-04-28T10:13:22.818Z,99.52
2023-04-28T10:14:22.784Z,99.63
2023-04-28T10:15:22.725Z,99.73
2023-04-28T10:16:22.809Z,99.83
2023-04-28T10:17:22.764Z,99.73
2023-04-28T10:18:22.678Z,99.93
2023-04-28T10:19:22.691Z,99.99
2023-04-28T10:20:22.728Z,99.99
2023-04-28T10:21:22.618Z,99.99
2023-04-28T10:22:22.682Z,99.99
2023-04-28T10:23:22.648Z,99.99
2023-04-28T10:24:22.684Z,99.99
2023-04-28T10:25:22.613Z,99.99
2023-04-28T10:26:22.613Z,99.99
2023-04-28T10:27:22.702Z,99.99
2023-04-28T10:28:22.607Z,99.99
2023-04-28T10:29:22.550Z,99.99
2023-04-28T10:30:28.363Z,99.99
2023-04-28T10:31:23.621Z,99.99
2023-04-28T10:32:22.534Z,99.99
2023-04-28T10:33:22.505Z,99.99
2023-04-28T10:34:22.526Z,99.99
2023-04-28T10:35:22.499Z,99.99
2023-04-28T10:36:35.717Z,99.99
2023-04-28T10:37:23.591Z,99.99
2023-04-28T10:38:22.427Z,99.99
2023-04-28T10:39:22.471Z,99.99
2023-04-28T10:40:22.462Z,99.99
2023-04-28T10:41:22.410Z,99.99
2023-04-28T10:42:22.405Z,99.99
2023-04-28T10:43:22.366Z,99.99
2023-04-28T10:44:22.368Z,99.99
2023-04-28T10:45:22.334Z,99.99
2023-04-28T10:46:22.359Z,99.99
2023-04-28T10:47:22.332Z,99.99
2023-04-28T10:48:22.284Z,99.99
2023-04-28T10:49:22.282Z,99.99
2023-04-28T10:50:29.339Z,99.99
2023-04-28T10:51:23.273Z,99.99
2023-04-28T10:52:22.256Z,99.99
2023-04-28T10:53:22.232Z,99.99
2023-04-28T10:54:22.236Z,99.99
2023-04-28T10:55:22.718Z,99.99
2023-04-28T10:56:22.194Z,99.99
2023-04-28T10:57:22.193Z,99.99
2023-04-28T10:58:22.152Z,99.99
2023-04-28T10:59:22.151Z,99.99
2023-04-28T11:00:22.171Z,99.99
2023-04-28T11:01:22.550Z,99.99
2023-04-28T11:02:22.229Z,99.99
2023-04-28T11:03:22.218Z,99.99
2023-04-28T11:04:22.367Z,99.99
2023-04-28T11:05:22.243Z,99.99
2023-04-28T11:06:22.103Z,99.99
2023-04-28T11:07:22.079Z,99.99
2023-04-28T11:08:22.059Z,99.99
2023-04-28T11:09:22.000Z,99.99
2023-04-28T11:10:22.032Z,99.99
2023-04-28T11:11:21.995Z,99.99
2023-04-28T11:12:21.978Z,99.99
2023-04-28T11:13:21.959Z,99.99
2023-04-28T11:14:21.991Z,99.99
2023-04-28T11:15:21.952Z,99.99
2023-04-28T11:16:22.036Z,99.99
2023-04-28T11:17:21.925Z,99.99
2023-04-28T11:18:21.917Z,99.99
2023-04-28T11:19:21.868Z,99.99
2023-04-28T11:20:21.926Z,99.99
2023-04-28T11:21:21.893Z,99.99
2023-04-28T11:22:21.912Z,99.99
2023-04-28T11:23:21.839Z,99.99
2023-04-28T11:24:21.861Z,99.99
2023-04-28T11:25:21.820Z,99.99
2023-04-28T11:26:21.833Z,99.99
2023-04-28T11:27:21.788Z,99.99
2023-04-28T11:28:21.817Z,99.99
2023-04-28T11:29:21.764Z,99.99
2023-04-28T11:30:21.831Z,99.76
2023-04-28T11:31:21.779Z,99.76
2023-04-28T11:32:21.725Z,99.76
2023-04-28T11:33:21.701Z,99.76
2023-04-28T11:34:21.743Z,99.51
2023-04-28T11:35:21.697Z,99.41
2023-04-28T11:36:21.695Z,99.21
2023-04-28T11:37:21.648Z,98.90
2023-04-28T11:38:21.638Z,98.70
2023-04-28T11:39:21.636Z,98.60
2023-04-28T11:40:21.619Z,98.55
2023-04-28T11:41:21.664Z,98.45
2023-04-28T11:42:21.586Z,97.94
2023-04-28T11:43:21.584Z,97.28
2023-04-28T11:44:21.604Z,97.08
2023-04-28T11:45:21.537Z,97.08
2023-04-28T11:46:21.689Z,97.38
2023-04-28T11:47:21.504Z,97.38
2023-04-28T11:48:21.569Z,97.38
2023-04-28T11:49:21.508Z,97.08
2023-04-28T11:50:21.482Z,97.28
2023-04-28T11:51:21.538Z,97.49
2023-04-28T11:52:21.459Z,97.18
2023-04-28T11:53:22.213Z,97.08
2023-04-28T11:54:21.466Z,97.18
2023-04-28T11:55:21.433Z,97.34
2023-04-28T11:56:21.429Z,97.74
2023-04-28T11:57:21.691Z,97.85
2023-04-28T11:58:21.434Z,97.24
2023-04-28T11:59:21.357Z,97.24
2023-04-28T12:00:21.371Z,97.39
2023-04-28T12:01:21.382Z,97.19
2023-04-28T12:02:21.501Z,97.09
2023-04-28T12:03:21.438Z,96.89
2023-04-28T12:04:21.431Z,96.58
2023-04-28T12:05:21.363Z,96.69
2023-04-28T12:06:21.326Z,96.58
2023-04-28T12:07:22.055Z,96.78
2023-04-28T12:08:21.258Z,96.58
2023-04-28T12:09:28.894Z,96.28
2023-04-28T12:10:21.247Z,96.18
2023-04-28T12:11:22.010Z,96.28
2023-04-28T12:12:26.353Z,96.38
2023-04-28T12:13:22.234Z,96.44
2023-04-28T12:14:21.247Z,96.54
2023-04-28T12:15:22.195Z,96.54
2023-04-28T12:16:21.241Z,96.74
2023-04-28T12:17:21.184Z,96.80
2023-04-28T12:18:21.158Z,96.49
2023-04-28T12:19:21.134Z,96.09
2023-04-28T12:20:21.105Z,95.98
2023-04-28T12:21:21.097Z,95.68
2023-04-28T12:22:21.090Z,95.48
2023-04-28T12:23:21.114Z,95.58
2023-04-28T12:24:21.082Z,95.64
2023-04-28T12:25:22.104Z,95.64
2023-04-28T12:26:21.107Z,95.54
2023-04-28T12:27:21.013Z,94.87
2023-04-28T12:28:20.995Z,94.23
2023-04-28T12:29:20.971Z,94.23
2023-04-28T12:30:20.993Z,94.12
2023-04-28T12:31:21.031Z,94.12
2023-04-28T12:32:20.958Z,94.43
2023-04-28T12:33:20.916Z,94.32
2023-04-28T12:34:20.939Z,93.88
2023-04-28T12:35:20.982Z,93.77
2023-04-28T12:36:20.932Z,93.98
2023-04-28T12:37:20.898Z,93.68
2023-04-28T12:38:20.879Z,93.68
2023-04-28T12:39:20.882Z,93.37
2023-04-28T12:40:20.885Z,93.37
2023-04-28T12:41:20.856Z,93.37
2023-04-28T12:42:21.568Z,93.07
2023-04-28T12:43:20.796Z,93.07
2023-04-28T12:44:20.800Z,93.17
2023-04-28T12:45:20.831Z,93.13
2023-04-28T12:46:20.887Z,93.33
2023-04-28T12:47:20.756Z,93.63
2023-04-28T12:48:20.751Z,93.02
2023-04-28T12:49:20.771Z,92.22
2023-04-28T12:50:20.748Z,92.68
2023-04-28T12:51:20.729Z,92.58
2023-04-28T12:52:20.799Z,92.27